Time;durP1;ratioP1;P1;durP2;ratioP2;P2;SDS_P1;SDS_P2;PMS_P1;PMS_P2;Temp;Humidity;BMP_temperature;BMP_pressure;BME280_temperature;BME280_humidity;BME280_pressure;Samples;Min_cycle;Max_cycle;Signal;HPM_P1;HPM_P2
2023/02/07 00:02:06;;;;;;;10.18;6.50;;;;;;;18.28;39.55;103850.41;4991156;28;20188;-74
2023/02/07 00:04:32;;;;;;;11.50;7.28;;;;;;;18.30;39.93;103856.47;4992942;28;20029;-76
2023/02/07 00:06:57;;;;;;;10.60;6.38;;;;;;;18.30;39.75;103864.41;4993124;28;20057;-74
2023/02/07 00:09:22;;;;;;;10.18;6.30;;;;;;;18.30;39.79;103859.13;4993739;28;20034;-73
2023/02/07 00:11:47;;;;;;;11.43;6.25;;;;;;;18.26;39.56;103852.25;5007984;28;20072;-73
2023/02/07 00:14:13;;;;;;;10.77;6.43;;;;;;;18.29;39.48;103862.69;4992300;28;20426;-75
2023/02/07 00:16:39;;;;;;;10.00;6.20;;;;;;;18.27;39.16;103859.22;4991883;28;20307;-75
2023/02/07 00:19:05;;;;;;;12.35;6.95;;;;;;;18.28;39.30;103863.59;4991807;28;20073;-75
2023/02/07 00:21:31;;;;;;;9.68;5.85;;;;;;;18.25;39.13;103852.28;4993138;28;20061;-74
2023/02/07 00:23:57;;;;;;;9.77;6.32;;;;;;;18.24;39.16;103855.84;4991358;28;20200;-73
2023/02/07 00:26:24;;;;;;;9.13;6.10;;;;;;;18.26;39.00;103864.56;4992341;28;20061;-75
2023/02/07 00:28:51;;;;;;;10.82;6.32;;;;;;;18.23;39.07;103865.53;4991544;28;20038;-74
2023/02/07 00:31:30;;;;;;;10.65;6.47;;;;;;;18.23;38.75;103860.25;4991378;28;20046;-73
2023/02/07 00:33:59;;;;;;;12.02;6.22;;;;;;;18.23;38.70;103862.00;4991401;28;20465;-74
2023/02/07 00:36:26;;;;;;;11.10;6.05;;;;;;;18.22;38.55;103857.66;4992161;28;20768;-73
2023/02/07 00:38:56;;;;;;;10.13;6.40;;;;;;;18.19;38.51;103869.19;4991999;28;20038;-72
2023/02/07 00:41:21;;;;;;;10.90;6.07;;;;;;;18.17;38.42;103863.09;4993136;28;20398;-73
2023/02/07 00:43:47;;;;;;;10.75;6.15;;;;;;;18.15;38.47;103858.78;4991530;28;20038;-72
2023/02/07 00:46:12;;;;;;;9.73;5.60;;;;;;;18.17;38.33;103854.34;4993562;28;20117;-73
2023/02/07 00:48:39;;;;;;;9.65;6.20;;;;;;;18.16;38.14;103864.00;4992824;28;20038;-74
2023/02/07 00:51:04;;;;;;;9.75;6.03;;;;;;;18.16;38.24;103857.88;4992353;28;20034;-74
2023/02/07 00:53:29;;;;;;;9.88;5.88;;;;;;;18.13;38.06;103848.28;4992057;28;20037;-76
2023/02/07 00:55:55;;;;;;;11.25;6.40;;;;;;;18.12;37.78;103857.97;4991958;28;20029;-74
2023/02/07 00:58:20;;;;;;;7.78;5.82;;;;;;;18.11;37.82;103856.25;4991317;28;20034;-73
2023/02/07 01:00:46;;;;;;;12.27;6.50;;;;;;;18.11;37.72;103860.66;4992327;28;20046;-72
2023/02/07 01:03:11;;;;;;;9.98;6.20;;;;;;;18.11;37.66;103860.66;4992275;28;20128;-73
2023/02/07 01:05:37;;;;;;;10.63;6.25;;;;;;;18.06;37.42;103854.69;4991272;28;20107;-72
2023/02/07 01:08:02;;;;;;;11.25;6.32;;;;;;;18.04;37.68;103845.94;4990912;28;20030;-73
2023/02/07 01:10:28;;;;;;;10.38;5.88;;;;;;;18.04;37.14;103841.53;4999722;28;20509;-73
2023/02/07 01:12:53;;;;;;;9.95;6.57;;;;;;;18.06;37.21;103841.50;4992260;28;20127;-73
2023/02/07 01:15:19;;;;;;;12.77;6.28;;;;;;;18.04;37.17;103840.66;4992572;28;20483;-73
2023/02/07 01:17:44;;;;;;;9.80;5.78;;;;;;;18.02;37.18;103847.78;4999973;28;20858;-73
2023/02/07 01:20:11;;;;;;;9.38;5.78;;;;;;;17.99;37.22;103850.50;4991471;28;20026;-73
2023/02/07 01:22:37;;;;;;;9.60;5.82;;;;;;;18.01;37.19;103846.94;4992515;28;20112;-75
2023/02/07 01:25:05;;;;;;;10.90;5.70;;;;;;;17.96;37.07;103843.59;4992627;28;20038;-71
2023/02/07 01:27:30;;;;;;;8.80;5.70;;;;;;;17.99;37.16;103851.41;4990914;28;20101;-73
2023/02/07 01:29:56;;;;;;;10.88;5.72;;;;;;;17.93;37.12;103852.44;4993092;28;20034;-73
2023/02/07 01:32:21;;;;;;;7.85;5.13;;;;;;;17.96;37.03;103859.41;4993097;28;20375;-73
2023/02/07 01:34:46;;;;;;;9.50;5.28;;;;;;;17.97;37.02;103853.19;4992842;28;20030;-72
2023/02/07 01:37:12;;;;;;;9.43;5.50;;;;;;;17.94;36.91;103845.38;4992365;28;20038;-73
2023/02/07 01:39:37;;;;;;;9.65;5.65;;;;;;;17.92;36.87;103832.25;4991964;28;20052;-74
2023/02/07 01:42:03;;;;;;;9.98;5.65;;;;;;;17.90;36.93;103842.00;4992370;28;20034;-73
2023/02/07 01:44:28;;;;;;;9.63;5.32;;;;;;;17.93;36.66;103848.97;4991729;28;20546;-73
2023/02/07 01:46:55;;;;;;;11.27;5.83;;;;;;;17.89;36.80;103844.69;4996137;28;20029;-72
2023/02/07 01:49:24;;;;;;;8.20;5.10;;;;;;;17.88;36.65;103849.09;4996061;28;20276;-71
2023/02/07 01:51:58;;;;;;;11.15;5.43;;;;;;;17.90;36.42;103851.69;4995244;28;20124;-72
2023/02/07 01:54:30;;;;;;;8.52;5.45;;;;;;;17.85;36.51;103843.00;4996080;28;20072;-73
2023/02/07 01:56:58;;;;;;;9.55;5.18;;;;;;;17.86;36.42;103844.75;4996174;28;20037;-71
2023/02/07 01:59:24;;;;;;;11.23;5.82;;;;;;;17.86;36.50;103848.25;4995833;28;20387;-73
2023/02/07 02:01:50;;;;;;;10.50;5.18;;;;;;;17.82;36.48;103844.00;4996149;28;20038;-74
2023/02/07 02:04:15;;;;;;;9.70;5.07;;;;;;;17.84;36.44;103850.06;4993377;28;20041;-75
2023/02/07 02:06:42;;;;;;;9.88;5.57;;;;;;;17.79;36.21;103843.25;4996087;28;20034;-74
2023/02/07 02:09:11;;;;;;;9.50;5.38;;;;;;;17.82;36.11;103836.09;4995223;28;20044;-72
2023/02/07 02:12:20;;;;;;;11.32;5.32;;;;;;;17.83;36.17;103837.81;4995177;28;20061;-71
2023/02/07 02:15:07;;;;;;;8.80;4.90;;;;;;;17.83;36.24;103836.94;4995012;28;20069;-72
2023/02/07 02:17:56;;;;;;;10.70;4.70;;;;;;;17.81;36.17;103838.78;4995407;28;20029;-71
2023/02/07 02:21:01;;;;;;;10.75;5.20;;;;;;;17.78;35.96;103847.63;4995192;28;20714;-72
2023/02/07 02:23:38;;;;;;;8.48;4.80;;;;;;;17.79;35.90;103854.66;4995582;28;20038;-71
2023/02/07 02:26:28;;;;;;;9.57;5.15;;;;;;;17.79;36.24;103846.72;4994432;28;20816;-72
2023/02/07 02:29:24;;;;;;;8.82;4.78;;;;;;;17.77;36.09;103859.13;4994661;28;20033;-72
2023/02/07 02:32:21;;;;;;;9.85;5.00;;;;;;;17.77;36.14;103864.41;4996316;28;20467;-72
2023/02/07 02:35:27;;;;;;;9.63;4.70;;;;;;;17.75;36.07;103863.56;4998392;28;20609;-73
2023/02/07 02:38:11;;;;;;;7.90;4.47;;;;;;;17.71;36.05;103846.97;5002319;28;20402;-73
2023/02/07 02:40:51;;;;;;;7.88;4.65;;;;;;;17.62;35.96;103830.59;5002227;28;20044;-72
2023/02/07 02:43:44;;;;;;;9.77;5.28;;;;;;;17.71;35.63;103846.97;4995368;28;20049;-73
2023/02/07 02:46:22;;;;;;;8.00;4.55;;;;;;;17.69;35.55;103843.53;4994616;28;20034;-73
2023/02/07 02:48:48;;;;;;;8.23;4.32;;;;;;;17.68;35.37;103856.78;4995075;28;20038;-75
2023/02/07 02:51:14;;;;;;;9.45;5.03;;;;;;;17.66;35.76;103846.28;4994559;28;20137;-71
2023/02/07 02:53:39;;;;;;;8.52;4.63;;;;;;;17.67;35.48;103853.25;4994523;28;20113;-74
2023/02/07 02:56:23;;;;;;;9.55;5.32;;;;;;;17.69;35.83;103856.72;4993964;28;20034;-72
2023/02/07 02:58:59;;;;;;;9.43;4.45;;;;;;;17.66;36.09;103861.25;4994134;28;20045;-74
2023/02/07 03:01:41;;;;;;;8.35;4.68;;;;;;;17.66;37.50;103851.53;4994393;28;20030;-74
2023/02/07 03:04:23;;;;;;;7.97;4.90;;;;;;;17.65;38.01;103846.31;4994137;28;20038;-74
2023/02/07 03:07:10;;;;;;;7.85;4.65;;;;;;;17.64;38.68;103852.50;4994828;28;20051;-74
2023/02/07 03:09:54;;;;;;;8.82;4.40;;;;;;;17.58;38.56;103843.00;4994883;28;20031;-72
2023/02/07 03:12:25;;;;;;;8.80;4.93;;;;;;;17.61;38.74;103848.19;4994546;28;20128;-73
2023/02/07 03:14:57;;;;;;;9.65;4.78;;;;;;;17.60;38.97;103857.00;4993261;28;20054;-74
2023/02/07 03:17:27;;;;;;;8.63;4.47;;;;;;;17.57;38.89;103847.41;4994763;28;20045;-74
2023/02/07 03:20:01;;;;;;;8.07;4.55;;;;;;;17.56;39.01;103860.63;4993412;28;20085;-73
2023/02/07 03:22:27;;;;;;;8.02;4.35;;;;;;;17.56;39.60;103848.34;4994047;28;20034;-72
2023/02/07 03:24:56;;;;;;;10.57;4.57;;;;;;;17.52;39.34;103848.47;4992627;28;20099;-74
2023/02/07 03:27:24;;;;;;;8.93;4.63;;;;;;;17.55;39.46;103856.28;4994292;28;20045;-74
2023/02/07 03:29:57;;;;;;;8.98;5.03;;;;;;;17.52;39.54;103854.59;4995077;28;20033;-74
2023/02/07 03:32:28;;;;;;;7.50;4.65;;;;;;;17.52;39.79;103853.75;4999319;28;20030;-70
2023/02/07 03:35:02;;;;;;;10.50;5.15;;;;;;;17.52;39.77;103853.75;5006711;28;20054;-71
2023/02/07 03:37:35;;;;;;;7.57;4.50;;;;;;;17.48;40.05;103849.47;5008293;28;20061;-70
2023/02/07 03:40:01;;;;;;;10.18;5.43;;;;;;;17.49;39.86;103843.31;5007988;28;20045;-73
2023/02/07 03:42:35;;;;;;;8.77;5.03;;;;;;;17.50;40.14;103848.53;5006533;28;20038;-72
2023/02/07 03:45:03;;;;;;;10.63;5.15;;;;;;;17.51;39.95;103849.38;5005427;28;20034;-71
2023/02/07 03:47:28;;;;;;;8.50;5.60;;;;;;;17.51;40.24;103838.84;5000688;28;20067;-73
2023/02/07 03:49:54;;;;;;;10.82;5.60;;;;;;;17.46;40.26;103831.06;4995030;28;20041;-74
2023/02/07 03:52:20;;;;;;;11.05;5.80;;;;;;;17.46;40.23;103836.34;5016812;28;20042;-70
2023/02/07 03:54:45;;;;;;;11.02;5.70;;;;;;;17.45;40.23;103826.72;5007601;28;21306;-73
2023/02/07 03:57:11;;;;;;;9.02;5.35;;;;;;;17.44;40.49;103819.72;4993881;28;20038;-73
2023/02/07 03:59:36;;;;;;;8.95;5.30;;;;;;;17.48;40.89;103825.75;4993687;28;20030;-73
2023/02/07 04:02:02;;;;;;;10.05;5.65;;;;;;;17.49;40.78;103830.97;4993077;28;20036;-72
2023/02/07 04:04:28;;;;;;;9.13;5.53;;;;;;;17.45;40.52;103820.56;5003138;28;20034;-71
2023/02/07 04:06:53;;;;;;;11.85;5.93;;;;;;;17.44;40.90;103819.72;5000578;28;20056;-73
2023/02/07 04:09:19;;;;;;;9.15;5.30;;;;;;;17.43;40.83;103825.03;4992512;28;20045;-74
2023/02/07 04:11:48;;;;;;;10.60;5.97;;;;;;;17.41;41.03;103825.94;4993117;28;20811;-73
2023/02/07 04:14:13;;;;;;;9.75;5.65;;;;;;;17.44;40.76;103824.13;4992263;28;20052;-73
2023/02/07 04:16:38;;;;;;;9.57;5.50;;;;;;;17.45;40.78;103831.09;4993158;28;20038;-74
2023/02/07 04:19:03;;;;;;;8.95;5.50;;;;;;;17.43;40.73;103823.25;4992100;28;21116;-73
2023/02/07 04:21:29;;;;;;;12.53;5.30;;;;;;;17.44;41.04;103829.41;4992833;28;20061;-72
2023/02/07 04:23:54;;;;;;;9.25;5.75;;;;;;;17.42;41.02;103832.09;4994102;28;20379;-71
2023/02/07 04:26:19;;;;;;;10.03;6.20;;;;;;;17.40;41.10;103824.22;4992354;28;20068;-72
2023/02/07 04:28:44;;;;;;;8.77;5.60;;;;;;;17.43;41.06;103828.53;5008211;28;20323;-72
2023/02/07 04:31:10;;;;;;;8.85;5.43;;;;;;;17.44;41.00;103830.25;4991918;28;20065;-72
2023/02/07 04:33:35;;;;;;;9.60;5.60;;;;;;;17.43;40.95;103823.25;4992723;28;20037;-69
2023/02/07 04:36:03;;;;;;;10.60;6.05;;;;;;;17.40;41.14;103821.59;4993259;28;20030;-73
2023/02/07 04:38:29;;;;;;;9.02;5.70;;;;;;;17.44;40.95;103829.41;4993502;28;20113;-73
2023/02/07 04:41:04;;;;;;;9.25;5.40;;;;;;;17.41;40.99;103825.94;4992029;28;20394;-72
2023/02/07 04:43:32;;;;;;;9.68;5.60;;;;;;;17.42;41.36;103821.53;4992737;28;20053;-74
2023/02/07 04:45:57;;;;;;;9.18;5.35;;;;;;;17.41;41.50;103820.66;4991944;28;20379;-72
2023/02/07 04:48:23;;;;;;;9.55;5.78;;;;;;;17.43;41.42;103819.75;4992244;28;20475;-73
2023/02/07 04:50:48;;;;;;;9.13;5.65;;;;;;;17.41;41.44;103814.53;4992027;28;20471;-71
2023/02/07 04:53:13;;;;;;;8.80;5.30;;;;;;;17.42;41.28;103818.91;4990891;28;20038;-72
2023/02/07 04:55:39;;;;;;;9.02;5.00;;;;;;;17.45;41.64;103825.84;4992390;28;20418;-72
2023/02/07 04:58:05;;;;;;;9.13;5.75;;;;;;;17.43;41.49;103817.13;4992677;28;20038;-73
2023/02/07 05:00:30;;;;;;;9.25;5.55;;;;;;;17.46;41.24;103819.66;4992854;28;20474;-73
2023/02/07 05:02:56;;;;;;;9.25;5.63;;;;;;;17.46;41.61;103817.88;4992943;28;20042;-72
2023/02/07 05:05:21;;;;;;;9.15;5.43;;;;;;;17.47;41.35;103818.75;4992167;28;20034;-72
2023/02/07 05:07:46;;;;;;;10.02;5.63;;;;;;;17.46;41.34;103817.03;4991346;28;20034;-71
2023/02/07 05:10:12;;;;;;;9.52;5.78;;;;;;;17.46;41.49;103825.78;4992231;28;20116;-73
2023/02/07 05:12:37;;;;;;;8.55;5.70;;;;;;;17.46;41.56;103822.31;4991423;28;20061;-74
2023/02/07 05:15:03;;;;;;;7.97;5.22;;;;;;;17.43;41.58;103820.59;4993141;28;20541;-73
2023/02/07 05:17:29;;;;;;;8.52;5.18;;;;;;;17.45;41.33;103825.84;4992382;28;20072;-74
2023/02/07 05:19:54;;;;;;;9.65;5.80;;;;;;;17.45;41.61;103832.00;4989969;28;20026;-73
2023/02/07 05:22:20;;;;;;;9.95;6.25;;;;;;;17.45;41.55;103831.09;4994400;28;20026;-74
2023/02/07 05:24:45;;;;;;;9.13;5.32;;;;;;;17.44;41.50;103827.63;4991921;28;20031;-72
2023/02/07 05:27:10;;;;;;;10.37;5.87;;;;;;;17.47;41.44;103840.72;4991680;28;20453;-74
2023/02/07 05:29:35;;;;;;;8.80;5.40;;;;;;;17.47;41.48;103838.06;4991736;28;20275;-73
2023/02/07 05:34:45;;;;;;;8.93;5.03;;;;;;;17.45;41.39;103836.38;4991022;28;20274;-70
2023/02/07 05:37:10;;;;;;;8.13;4.80;;;;;;;17.46;40.84;103836.34;4992583;28;20035;-71
2023/02/07 05:39:35;;;;;;;8.18;4.80;;;;;;;17.47;40.80;103839.84;4991611;28;20034;-72
2023/02/07 05:42:00;;;;;;;6.60;4.07;;;;;;;17.49;40.66;103845.94;4991785;28;20104;-73
2023/02/07 05:44:26;;;;;;;8.55;4.15;;;;;;;17.52;40.33;103853.75;4991712;28;20038;-71
2023/02/07 05:46:51;;;;;;;7.40;4.63;;;;;;;17.56;40.32;103852.72;4991789;28;20034;-73
2023/02/07 05:49:16;;;;;;;5.75;3.83;;;;;;;17.57;40.28;103851.81;4991049;28;20272;-73
2023/02/07 05:51:41;;;;;;;6.65;3.90;;;;;;;17.64;40.03;103844.56;4991427;28;20057;-72
2023/02/07 05:54:07;;;;;;;8.45;4.00;;;;;;;17.72;40.01;103853.09;4991297;28;20033;-75
2023/02/07 05:56:32;;;;;;;6.50;3.47;;;;;;;17.76;39.76;103852.09;4991977;28;20033;-73
2023/02/07 05:58:57;;;;;;;5.85;3.60;;;;;;;17.83;39.81;103858.03;4990382;28;20147;-73
2023/02/07 06:01:24;;;;;;;6.78;4.00;;;;;;;17.86;39.76;103856.16;4991647;28;20037;-72
2023/02/07 06:03:49;;;;;;;7.45;4.10;;;;;;;17.89;39.69;103858.72;4990195;28;20033;-72
2023/02/07 06:06:14;;;;;;;8.52;4.15;;;;;;;17.90;39.76;103856.97;4992222;28;20105;-73
2023/02/07 06:08:39;;;;;;;6.90;4.10;;;;;;;17.93;39.67;103859.50;4991494;28;20044;-74
2023/02/07 06:11:05;;;;;;;6.27;3.70;;;;;;;17.97;39.68;103873.47;4991216;28;20124;-72
2023/02/07 06:13:30;;;;;;;6.82;3.80;;;;;;;17.98;39.70;103876.06;4991228;28;20280;-72
2023/02/07 06:15:55;;;;;;;7.25;3.60;;;;;;;18.01;39.52;103877.72;4991042;28;20041;-72
2023/02/07 06:18:21;;;;;;;6.57;3.92;;;;;;;18.02;39.65;103880.28;4991121;28;20040;-73
2023/02/07 06:20:50;;;;;;;6.85;3.97;;;;;;;18.01;39.71;103864.50;4991207;28;20042;-71
2023/02/07 06:23:15;;;;;;;6.72;3.80;;;;;;;18.04;39.74;103878.50;4991220;28;20061;-72
2023/02/07 06:25:40;;;;;;;7.20;4.18;;;;;;;18.05;39.56;103882.84;4990500;28;20064;-74
2023/02/07 06:28:05;;;;;;;6.88;3.90;;;;;;;18.05;39.68;103884.63;4990672;28;20026;-74
2023/02/07 06:30:31;;;;;;;6.80;3.60;;;;;;;18.05;39.49;103888.13;4991814;28;20038;-72
2023/02/07 06:32:56;;;;;;;7.00;4.20;;;;;;;18.02;39.59;103875.00;4992588;28;20275;-72
2023/02/07 06:35:22;;;;;;;7.57;3.90;;;;;;;18.06;39.02;103896.91;4994843;28;20121;-72
2023/02/07 06:37:48;;;;;;;7.63;4.10;;;;;;;18.08;39.51;103898.56;4992117;28;20125;-72
2023/02/07 06:40:13;;;;;;;7.43;4.28;;;;;;;18.04;39.54;103888.16;4994668;28;20033;-72
2023/02/07 06:42:38;;;;;;;6.57;3.90;;;;;;;18.09;39.71;103896.81;4993885;28;20588;-73
2023/02/07 06:45:04;;;;;;;6.75;3.72;;;;;;;18.09;39.71;103902.94;4993529;28;20085;-72
2023/02/07 06:47:29;;;;;;;6.15;3.55;;;;;;;18.11;39.51;103898.47;4994198;28;20128;-73
2023/02/07 06:49:54;;;;;;;6.75;3.65;;;;;;;18.11;39.67;103903.75;4993894;28;20038;-74
2023/02/07 06:52:19;;;;;;;6.40;3.90;;;;;;;18.11;39.64;103894.97;4994294;28;20113;-72
2023/02/07 06:54:45;;;;;;;6.30;4.10;;;;;;;18.16;39.63;103913.31;4993334;28;20100;-74
2023/02/07 06:57:10;;;;;;;6.05;3.60;;;;;;;18.17;39.52;103907.13;4993195;28;20041;-72
2023/02/07 06:59:35;;;;;;;6.80;3.75;;;;;;;18.13;39.53;103899.31;4993509;28;20115;-74
2023/02/07 07:02:02;;;;;;;7.05;3.65;;;;;;;18.15;39.75;103899.25;4998322;28;20080;-73
2023/02/07 07:04:28;;;;;;;5.95;3.35;;;;;;;18.15;39.39;103898.38;4993498;28;20449;-74
2023/02/07 07:06:53;;;;;;;5.90;3.67;;;;;;;18.15;39.64;103893.09;4992952;28;20042;-73
2023/02/07 07:09:18;;;;;;;6.88;3.70;;;;;;;18.13;39.30;103895.78;4994165;28;20038;-72
2023/02/07 07:11:44;;;;;;;6.93;4.30;;;;;;;18.12;39.21;103900.22;4992244;28;20046;-73
2023/02/07 07:14:10;;;;;;;6.75;3.80;;;;;;;18.13;39.70;103915.16;4993029;28;20161;-74
2023/02/07 07:16:36;;;;;;;7.15;4.22;;;;;;;18.10;39.72;103919.63;4993290;28;20034;-73
2023/02/07 07:19:01;;;;;;;6.88;3.88;;;;;;;18.04;39.88;103915.44;4993822;28;20039;-74
2023/02/07 07:21:27;;;;;;;5.78;3.78;;;;;;;18.04;39.99;103918.09;4994208;28;20038;-74
2023/02/07 07:23:53;;;;;;;6.40;4.10;;;;;;;18.03;40.12;103918.97;4999330;28;20036;-74
2023/02/07 07:26:18;;;;;;;5.60;3.83;;;;;;;18.04;39.95;103919.84;4992380;28;20034;-74
2023/02/07 07:28:44;;;;;;;7.68;4.43;;;;;;;18.03;40.03;103924.25;4994371;28;20455;-74
2023/02/07 07:31:09;;;;;;;5.80;3.30;;;;;;;18.03;40.07;103936.59;4993174;28;20049;-74
2023/02/07 07:33:35;;;;;;;5.65;3.65;;;;;;;18.00;40.21;103923.50;4992706;28;20045;-76
2023/02/07 07:36:01;;;;;;;5.60;3.50;;;;;;;18.02;40.54;103919.03;4993470;28;20045;-77
2023/02/07 07:38:27;;;;;;;5.38;3.55;;;;;;;18.03;40.54;103923.41;4992365;28;20042;-75
2023/02/07 07:40:52;;;;;;;6.38;3.67;;;;;;;18.06;40.83;103934.72;4992924;28;20030;-74
2023/02/07 07:43:18;;;;;;;5.32;3.33;;;;;;;18.07;40.53;103935.56;4991395;28;20026;-76
2023/02/07 07:45:43;;;;;;;6.13;3.28;;;;;;;18.12;41.14;103942.44;4993646;28;20104;-76
2023/02/07 07:48:08;;;;;;;6.38;3.60;;;;;;;18.13;41.10;103938.91;4992594;28;20119;-77
2023/02/07 07:50:33;;;;;;;6.20;3.20;;;;;;;18.15;41.20;103952.06;4993318;28;20037;-75
2023/02/07 07:52:59;;;;;;;5.68;3.65;;;;;;;18.16;41.04;103950.25;4993051;28;20608;-81
2023/02/07 07:55:24;;;;;;;5.47;3.23;;;;;;;18.17;41.50;103946.72;4993668;28;20560;-78
2023/02/07 07:57:50;;;;;;;5.85;3.53;;;;;;;18.18;41.35;103943.16;4992543;28;20346;-76
2023/02/07 08:00:15;;;;;;;7.00;3.40;;;;;;;18.15;41.38;103952.06;4992438;28;20041;-77
2023/02/07 08:02:42;;;;;;;5.57;3.20;;;;;;;18.17;41.33;103952.00;4993337;28;20076;-77
2023/02/07 08:05:08;;;;;;;7.05;3.38;;;;;;;18.17;41.23;103947.56;4993450;28;20030;-74
2023/02/07 08:07:33;;;;;;;5.72;3.25;;;;;;;18.19;41.26;103955.44;4993938;28;20041;-79
2023/02/07 08:09:59;;;;;;;6.40;3.75;;;;;;;18.17;41.07;103957.28;4993681;28;20217;-78
2023/02/07 08:12:24;;;;;;;5.72;3.90;;;;;;;18.19;41.46;103969.50;4992156;28;20029;-71
2023/02/07 08:14:50;;;;;;;5.72;3.30;;;;;;;18.19;41.15;103963.38;4992458;28;20110;-74
2023/02/07 08:17:15;;;;;;;7.00;4.10;;;;;;;18.21;40.61;103961.53;4998056;28;21084;-74
2023/02/07 08:19:41;;;;;;;7.40;3.90;;;;;;;18.22;40.44;103963.25;4991252;28;20042;-74
2023/02/07 08:22:06;;;;;;;7.63;4.13;;;;;;;18.19;40.77;103966.00;4993303;28;20565;-74
2023/02/07 08:24:33;;;;;;;7.50;4.00;;;;;;;18.19;40.78;103964.22;4992859;28;20030;-74
2023/02/07 08:26:58;;;;;;;5.43;3.58;;;;;;;18.17;40.81;103952.84;4992555;28;20040;-73
2023/02/07 08:29:24;;;;;;;5.60;3.35;;;;;;;18.19;40.92;103960.72;4992343;28;20034;-76
2023/02/07 08:31:49;;;;;;;5.20;3.30;;;;;;;18.19;40.86;103947.53;4991616;28;20033;-72
2023/02/07 08:34:15;;;;;;;6.50;3.30;;;;;;;18.21;41.05;103943.91;4993826;28;20395;-75
2023/02/07 08:36:40;;;;;;;13.18;4.18;;;;;;;18.24;40.84;103950.88;4989570;28;20085;-75
2023/02/07 08:39:06;;;;;;;6.60;4.03;;;;;;;18.26;40.88;103946.41;4990552;28;20033;-77
2023/02/07 08:41:31;;;;;;;6.70;3.97;;;;;;;18.23;40.95;103946.50;4991412;28;20076;-74
2023/02/07 08:43:56;;;;;;;7.13;3.97;;;;;;;18.28;41.04;103953.38;4991338;28;20042;-75
2023/02/07 08:46:22;;;;;;;6.80;3.72;;;;;;;18.28;40.93;103949.88;4992769;28;20394;-76
2023/02/07 08:48:47;;;;;;;6.65;3.75;;;;;;;18.27;40.89;103946.34;4991205;28;20039;-72
2023/02/07 08:51:13;;;;;;;7.18;3.92;;;;;;;18.29;41.21;103949.81;4992365;28;20101;-75
2023/02/07 08:53:38;;;;;;;6.35;3.85;;;;;;;18.32;41.24;103954.13;4992227;28;20038;-76
2023/02/07 08:56:04;;;;;;;7.65;3.88;;;;;;;18.29;41.33;103944.53;4990921;28;20034;-72
2023/02/07 08:58:29;;;;;;;5.72;3.65;;;;;;;18.32;41.38;103940.91;4992300;28;20034;-72
2023/02/07 09:00:55;;;;;;;7.07;4.00;;;;;;;18.34;41.46;103938.22;4991583;28;20034;-74
2023/02/07 09:03:20;;;;;;;8.52;4.05;;;;;;;18.36;41.56;103937.28;4991101;28;20034;-74
2023/02/07 09:05:46;;;;;;;7.13;4.25;;;;;;;18.36;41.33;103934.63;4991553;28;20062;-73
2023/02/07 09:08:11;;;;;;;7.13;4.18;;;;;;;18.37;41.52;103933.69;4991386;28;20481;-77
2023/02/07 09:10:36;;;;;;;8.20;4.35;;;;;;;18.43;41.33;103943.19;4997179;28;20034;-73
2023/02/07 09:13:01;;;;;;;9.50;4.13;;;;;;;18.44;41.69;103939.66;4990109;28;20042;-78
2023/02/07 09:15:27;;;;;;;5.97;4.15;;;;;;;18.42;41.48;103936.19;4991873;28;21007;-78
2023/02/07 09:17:52;;;;;;;11.68;4.75;;;;;;;18.45;40.98;103944.00;4990804;28;20563;-70
2023/02/07 09:20:17;;;;;;;6.05;4.20;;;;;;;18.43;40.85;103932.63;4992033;28;20034;-76
2023/02/07 09:25:27;;;;;;;7.97;4.22;;;;;;;18.48;41.10;103942.16;4990680;28;20041;-75
2023/02/07 09:27:54;;;;;;;7.32;4.20;;;;;;;18.46;41.10;103933.38;4990021;28;20395;-73
2023/02/07 09:30:20;;;;;;;6.40;3.95;;;;;;;18.49;41.04;103924.50;4991089;28;20053;-74
2023/02/07 09:32:45;;;;;;;8.02;3.80;;;;;;;18.51;40.98;103925.31;4990104;28;20031;-68
2023/02/07 09:35:10;;;;;;;7.00;4.40;;;;;;;18.47;40.93;103932.47;4988236;28;20594;-67
2023/02/07 09:37:35;;;;;;;6.18;3.80;;;;;;;18.44;41.05;103916.75;4991706;28;20069;-66
2023/02/07 09:40:01;;;;;;;8.70;4.50;;;;;;;18.45;40.88;103917.59;4991174;28;20033;-67
2023/02/07 09:42:44;;;;;;;8.20;3.92;;;;;;;18.43;41.33;103914.16;4991602;28;20267;-65
2023/02/07 09:45:15;;;;;;;5.68;3.38;;;;;;;18.43;41.23;103911.50;4990718;28;20034;-68
2023/02/07 09:47:44;;;;;;;6.15;3.15;;;;;;;18.46;41.11;103920.19;4991517;28;20026;-74
2023/02/07 09:50:20;;;;;;;7.45;4.13;;;;;;;18.47;41.42;103915.78;4990925;28;20380;-71
2023/02/07 09:52:49;;;;;;;6.57;3.10;;;;;;;18.44;41.14;103911.47;4992416;28;20088;-73
2023/02/07 09:55:22;;;;;;;6.20;3.25;;;;;;;18.43;41.11;103908.88;4990993;28;21197;-74
2023/02/07 09:57:52;;;;;;;7.78;3.50;;;;;;;18.49;41.23;103908.66;4991402;28;20407;-74
2023/02/07 10:00:23;;;;;;;7.25;3.83;;;;;;;18.48;41.54;103910.44;4991199;28;20034;-74
2023/02/07 10:03:06;;;;;;;10.45;3.28;;;;;;;18.50;41.51;103913.03;4992223;28;20041;-74
2023/02/07 10:05:57;;;;;;;6.60;3.40;;;;;;;18.50;41.51;103915.69;4992872;28;20025;-76
2023/02/07 10:08:23;;;;;;;5.65;3.33;;;;;;;18.45;41.42;103901.75;4994255;28;20092;-74
2023/02/07 10:11:23;;;;;;;6.30;3.40;;;;;;;18.50;41.58;103913.03;4994659;28;20034;-75
2023/02/07 10:14:16;;;;;;;5.88;3.30;;;;;;;18.45;41.55;103894.72;5000404;28;20075;-68
2023/02/07 10:17:06;;;;;;;7.10;3.38;;;;;;;18.50;41.86;103905.13;4993800;28;20065;-71
2023/02/07 10:19:39;;;;;;;6.20;3.45;;;;;;;18.52;41.97;103908.56;4993748;28;20105;-70
2023/02/07 10:22:25;;;;;;;8.18;3.88;;;;;;;18.46;42.42;103899.06;4994385;28;20049;-70
2023/02/07 10:25:16;;;;;;;5.93;3.10;;;;;;;18.49;42.55;103904.22;4992919;28;20038;-71
2023/02/07 10:27:54;;;;;;;5.93;3.03;;;;;;;18.49;42.26;103901.59;4993790;28;20040;-75
2023/02/07 10:30:25;;;;;;;6.03;2.95;;;;;;;18.50;42.59;103899.84;5000328;28;20042;-75
2023/02/07 10:32:52;;;;;;;5.68;3.00;;;;;;;18.54;42.68;103904.06;4998606;28;20037;-76
2023/02/07 10:35:27;;;;;;;5.80;3.10;;;;;;;18.52;42.90;103894.47;4994170;28;20446;-74
2023/02/07 10:37:55;;;;;;;6.28;2.80;;;;;;;18.58;42.95;103897.78;4993797;28;20463;-74
2023/02/07 10:40:28;;;;;;;5.55;3.20;;;;;;;18.61;42.97;103902.06;4994556;28;20479;-76
2023/02/07 10:43:02;;;;;;;6.70;3.25;;;;;;;18.59;42.92;103890.72;4995002;28;20105;-71
2023/02/07 10:45:28;;;;;;;7.90;3.33;;;;;;;18.66;42.37;103889.59;4994033;28;20101;-72
2023/02/07 10:47:54;;;;;;;7.65;2.88;;;;;;;18.66;42.45;103890.44;4993394;28;20471;-72
2023/02/07 10:50:22;;;;;;;6.35;3.38;;;;;;;18.64;42.21;103887.00;4993832;28;20046;-73
2023/02/07 10:52:55;;;;;;;5.50;2.88;;;;;;;18.70;42.28;103901.75;4993416;28;20057;-72
2023/02/07 10:55:45;;;;;;;7.05;2.80;;;;;;;18.68;42.56;103887.75;4994685;28;20109;-73
2023/02/07 10:58:16;;;;;;;5.22;2.78;;;;;;;18.71;42.65;103884.13;4993539;28;20038;-74
2023/02/07 11:00:48;;;;;;;7.28;3.03;;;;;;;18.72;42.72;103883.22;4994328;28;20513;-73
2023/02/07 11:03:19;;;;;;;6.60;2.80;;;;;;;18.74;42.47;103878.72;4993072;28;20037;-72
2023/02/07 11:06:03;;;;;;;6.65;2.70;;;;;;;18.78;42.14;103878.56;4995344;28;20141;-80
2023/02/07 11:08:32;;;;;;;6.30;2.77;;;;;;;18.79;42.32;103874.16;4995299;28;20045;-76
2023/02/07 11:11:19;;;;;;;5.40;2.55;;;;;;;18.79;42.10;103876.81;4994314;28;20025;-78
2023/02/07 11:13:48;;;;;;;4.80;2.53;;;;;;;18.76;42.42;103877.75;4992783;28;20081;-76
2023/02/07 11:16:16;;;;;;;5.22;2.67;;;;;;;18.78;42.31;103872.44;4992364;28;20037;-72
2023/02/07 11:18:44;;;;;;;11.52;3.22;;;;;;;18.78;41.71;103877.72;4992012;28;20049;-73
2023/02/07 11:21:37;;;;;;;7.40;2.88;;;;;;;18.78;41.30;103881.19;4992607;28;20069;-79
2023/02/07 11:24:07;;;;;;;6.15;2.30;;;;;;;18.82;41.52;103880.19;4992100;28;20063;-73
2023/02/07 11:26:38;;;;;;;4.93;2.40;;;;;;;18.79;41.65;103875.00;4993917;28;20125;-71
2023/02/07 11:29:15;;;;;;;4.95;2.15;;;;;;;18.81;41.70;103872.31;4994152;28;20521;-75
2023/02/07 11:31:42;;;;;;;4.35;2.08;;;;;;;18.77;41.59;103870.69;4992723;28;20483;-78
2023/02/07 11:34:28;;;;;;;6.53;2.60;;;;;;;18.78;41.27;103875.91;4999108;28;20066;-75
2023/02/07 11:37:06;;;;;;;7.50;1.98;;;;;;;18.77;41.57;103868.03;4992435;28;20080;-78
2023/02/07 11:39:32;;;;;;;3.97;1.88;;;;;;;18.79;41.53;103875.00;4993079;28;21094;-74